createdAt,value
2023-09-30T00:01:55.784Z,64.15
2023-09-30T00:04:57.765Z,63.10
2023-09-30T00:07:59.768Z,64.00
2023-09-30T00:11:01.891Z,63.79
2023-09-30T00:14:04.350Z,62.69
2023-09-30T00:17:06.666Z,63.44
2023-09-30T00:20:09.852Z,64.03
2023-09-30T00:23:11.985Z,62.86
2023-09-30T00:26:15.360Z,63.53
2023-09-30T00:29:20.330Z,64.14
2023-09-30T00:32:22.609Z,64.21
2023-09-30T00:35:25.092Z,64.04
2023-09-30T00:38:27.171Z,64.18
2023-09-30T00:41:29.333Z,63.70
2023-09-30T00:44:32.329Z,63.56
2023-09-30T00:47:35.367Z,63.73
2023-09-30T00:50:38.128Z,62.91
2023-09-30T00:53:40.797Z,62.98
2023-09-30T00:56:49.128Z,63.71
2023-09-30T00:59:53.022Z,63.35
2023-09-30T01:02:55.297Z,63.49
2023-09-30T01:05:57.349Z,64.01
2023-09-30T01:08:59.469Z,62.76
2023-09-30T01:12:04.082Z,63.63
2023-09-30T01:15:08.568Z,63.35
2023-09-30T01:18:11.064Z,63.36
2023-09-30T01:21:13.822Z,64.53
2023-09-30T01:24:17.373Z,64.37
2023-09-30T01:27:20.832Z,64.14
2023-09-30T01:30:24.556Z,63.63
2023-09-30T01:33:26.835Z,64.30
2023-09-30T01:36:30.196Z,64.07
2023-09-30T01:39:32.691Z,64.58
2023-09-30T01:42:35.510Z,63.78
2023-09-30T01:45:38.480Z,63.83
2023-09-30T01:48:40.631Z,64.22
2023-09-30T01:51:42.924Z,63.28
2023-09-30T01:54:45.122Z,63.99
2023-09-30T01:57:47.276Z,63.68
2023-09-30T02:00:49.439Z,62.86
2023-09-30T02:03:51.837Z,63.47
2023-09-30T02:06:53.888Z,63.14
2023-09-30T02:09:56.817Z,64.12
2023-09-30T02:13:00.597Z,62.72
2023-09-30T02:16:02.987Z,63.95
2023-09-30T02:19:05.165Z,63.67
2023-09-30T02:22:08.047Z,62.87
2023-09-30T02:25:10.641Z,63.85
2023-09-30T02:28:13.511Z,63.87
2023-09-30T02:31:15.624Z,62.96
2023-09-30T02:34:17.784Z,62.96
2023-09-30T02:37:20.083Z,63.65
2023-09-30T02:40:22.049Z,62.74
2023-09-30T02:43:25.040Z,62.79
2023-09-30T02:46:29.427Z,63.21
2023-09-30T02:49:34.236Z,63.49
2023-09-30T02:52:37.641Z,62.52
2023-09-30T02:55:40.271Z,63.42
2023-09-30T02:58:42.408Z,62.62
2023-09-30T03:01:44.658Z,62.92
2023-09-30T03:04:47.757Z,62.82
2023-09-30T03:07:51.882Z,63.15
2023-09-30T03:10:54.269Z,62.54
2023-09-30T03:13:57.054Z,63.84
2023-09-30T03:17:00.385Z,63.83
2023-09-30T03:20:02.662Z,62.51
2023-09-30T03:23:05.850Z,63.02
2023-09-30T03:26:11.330Z,63.11
2023-09-30T03:29:13.994Z,63.23
2023-09-30T03:32:16.256Z,62.83
2023-09-30T03:35:19.232Z,62.28
2023-09-30T03:38:23.876Z,62.64
2023-09-30T03:41:26.201Z,61.91
2023-09-30T03:44:29.195Z,61.79
2023-09-30T03:47:32.656Z,61.78
2023-09-30T03:50:35.136Z,61.97
2023-09-30T03:53:37.255Z,62.52
2023-09-30T03:56:42.712Z,62.99
2023-09-30T03:59:47.301Z,63.19
2023-09-30T04:02:51.414Z,62.80
2023-09-30T04:05:54.730Z,61.95
2023-09-30T04:08:56.766Z,62.45
2023-09-30T04:11:59.423Z,63.51
2023-09-30T04:15:02.277Z,62.38
2023-09-30T04:18:06.567Z,62.23
2023-09-30T04:21:09.136Z,62.31
2023-09-30T04:24:11.190Z,62.13
2023-09-30T04:27:13.363Z,61.92
2023-09-30T04:30:16.735Z,62.22
2023-09-30T04:33:18.929Z,62.62
2023-09-30T04:36:22.428Z,62.31
2023-09-30T04:39:24.827Z,63.25
2023-09-30T04:42:26.947Z,62.71
2023-09-30T04:45:29.550Z,62.58
2023-09-30T04:48:33.409Z,62.84
2023-09-30T04:51:35.511Z,63.16
2023-09-30T04:54:37.706Z,63.71
2023-09-30T04:57:39.832Z,63.40
2023-09-30T05:00:42.139Z,62.97
2023-09-30T05:03:45.336Z,64.06
2023-09-30T05:06:47.509Z,63.71
2023-09-30T05:09:50.151Z,63.88
2023-09-30T05:12:55.443Z,63.92
2023-09-30T05:15:57.920Z,63.57
2023-09-30T05:19:00.265Z,62.99
2023-09-30T05:22:02.487Z,63.39
2023-09-30T05:25:04.886Z,63.81
2023-09-30T05:28:07.739Z,63.44
2023-09-30T05:31:10.304Z,62.60
2023-09-30T05:34:12.434Z,62.90
2023-09-30T05:37:14.488Z,63.01
2023-09-30T05:40:31.861Z,63.99
2023-09-30T05:43:34.326Z,63.01
2023-09-30T05:46:37.125Z,63.70
2023-09-30T05:49:39.228Z,63.33
2023-09-30T05:52:42.164Z,63.17
2023-09-30T05:55:44.519Z,62.83
2023-09-30T05:58:46.617Z,62.95
2023-09-30T06:01:48.919Z,62.79
2023-09-30T06:04:52.348Z,62.62
2023-09-30T06:07:55.595Z,62.99
2023-09-30T06:11:00.144Z,62.70
2023-09-30T06:14:02.374Z,63.80
2023-09-30T06:17:04.580Z,62.82
2023-09-30T06:20:17.277Z,62.66
2023-09-30T06:23:19.474Z,63.05
2023-09-30T06:26:22.230Z,63.16
2023-09-30T06:29:24.943Z,63.20
2023-09-30T06:32:26.951Z,63.79
2023-09-30T06:35:38.318Z,63.57
2023-09-30T06:38:41.015Z,63.48
2023-09-30T06:41:44.952Z,63.80
2023-09-30T06:44:48.414Z,63.93
2023-09-30T06:47:50.640Z,63.31
2023-09-30T06:50:53.875Z,63.19
2023-09-30T06:53:56.031Z,63.75
2023-09-30T06:56:58.114Z,62.44
2023-09-30T07:00:00.599Z,62.75
2023-09-30T07:03:02.951Z,63.81
2023-09-30T07:06:05.527Z,63.65
2023-09-30T07:09:07.568Z,63.45
2023-09-30T07:12:09.613Z,63.99
2023-09-30T07:15:12.146Z,62.83
2023-09-30T07:18:14.229Z,63.43
2023-09-30T07:21:16.481Z,62.87
2023-09-30T07:24:18.724Z,62.97
2023-09-30T07:27:27.705Z,63.64
2023-09-30T07:30:30.722Z,62.94
2023-09-30T07:33:32.967Z,63.24
2023-09-30T07:36:35.098Z,62.68
2023-09-30T07:39:37.561Z,63.40
2023-09-30T07:42:39.872Z,63.33
2023-09-30T07:45:42.159Z,63.29
2023-09-30T07:48:44.466Z,63.36
2023-09-30T07:51:49.680Z,62.71
2023-09-30T07:54:51.703Z,63.33
2023-09-30T07:57:54.222Z,62.27
2023-09-30T08:00:56.362Z,62.49
2023-09-30T08:03:58.729Z,63.17
2023-09-30T08:07:01.055Z,62.54
2023-09-30T08:10:08.350Z,62.34
2023-09-30T08:13:10.784Z,63.32
2023-09-30T08:16:13.070Z,62.04
2023-09-30T08:19:15.240Z,62.89
2023-09-30T08:22:17.400Z,62.25
2023-09-30T08:25:19.506Z,62.75
2023-09-30T08:28:22.128Z,62.59
2023-09-30T08:31:25.429Z,63.01
2023-09-30T08:34:27.611Z,61.97
2023-09-30T08:37:29.821Z,62.22
2023-09-30T08:40:32.517Z,61.76
2023-09-30T08:43:44.663Z,61.44
2023-09-30T08:46:48.804Z,62.28
2023-09-30T08:49:57.871Z,60.76
2023-09-30T08:53:05.167Z,61.42
2023-09-30T08:56:11.669Z,61.52
2023-09-30T08:59:15.647Z,60.67
2023-09-30T09:02:18.017Z,60.52
2023-09-30T09:05:20.139Z,60.65
2023-09-30T09:08:25.093Z,60.65
2023-09-30T09:11:27.039Z,60.75
2023-09-30T09:14:39.864Z,59.47
2023-09-30T09:17:46.470Z,59.12
2023-09-30T09:20:48.600Z,59.82
2023-09-30T09:23:52.993Z,58.29
2023-09-30T09:27:06.272Z,58.58
2023-09-30T09:30:27.904Z,58.70
2023-09-30T09:33:38.370Z,58.50
2023-09-30T09:36:45.798Z,57.01
2023-09-30T09:39:54.457Z,58.13
2023-09-30T09:42:58.656Z,58.21
2023-09-30T09:46:05.040Z,57.91
2023-09-30T09:49:09.035Z,56.98
2023-09-30T09:52:14.606Z,56.93
2023-09-30T09:55:18.603Z,57.52
2023-09-30T09:58:21.616Z,56.04
2023-09-30T10:01:23.939Z,56.58
2023-09-30T10:04:26.193Z,57.46
2023-09-30T10:07:36.658Z,59.16
2023-09-30T10:10:40.298Z,56.59
2023-09-30T10:13:52.141Z,59.78
2023-09-30T10:16:54.712Z,61.19
2023-09-30T10:20:08.131Z,62.18
2023-09-30T10:23:34.422Z,61.65
2023-09-30T10:26:37.459Z,61.98
2023-09-30T10:29:46.134Z,61.58
2023-09-30T10:32:55.029Z,61.73
2023-09-30T10:35:57.734Z,60.94
2023-09-30T10:39:00.919Z,61.21
2023-09-30T10:42:03.717Z,61.05
2023-09-30T10:45:06.295Z,61.29
2023-09-30T10:48:26.885Z,60.92
2023-09-30T10:51:29.133Z,60.86
2023-09-30T10:54:33.030Z,60.73
2023-09-30T10:57:35.315Z,61.32
2023-09-30T11:00:39.848Z,61.37
2023-09-30T11:03:43.154Z,61.01
2023-09-30T11:06:46.240Z,60.93
2023-09-30T11:09:48.475Z,61.07
2023-09-30T11:13:00.300Z,61.10
2023-09-30T11:16:04.270Z,61.28
2023-09-30T11:19:09.111Z,61.01
2023-09-30T11:22:11.319Z,60.52
2023-09-30T11:25:20.358Z,60.28
2023-09-30T11:28:23.399Z,60.03
2023-09-30T11:31:26.070Z,60.02
2023-09-30T11:34:38.917Z,60.46
2023-09-30T11:37:46.248Z,60.58
2023-09-30T11:41:03.776Z,60.73
2023-09-30T11:44:16.401Z,60.84
2023-09-30T11:47:30.632Z,61.17
2023-09-30T11:50:49.637Z,60.88
2023-09-30T11:53:59.024Z,61.17
2023-09-30T11:57:04.658Z,61.08
2023-09-30T12:00:14.813Z,60.97
2023-09-30T12:03:17.568Z,60.85
2023-09-30T12:06:19.716Z,60.57
2023-09-30T12:09:26.628Z,60.38
2023-09-30T12:12:28.779Z,60.65
2023-09-30T12:15:31.010Z,61.04
2023-09-30T12:18:33.188Z,60.73
2023-09-30T12:21:36.115Z,61.47
2023-09-30T12:24:38.298Z,61.69
2023-09-30T12:27:41.031Z,61.17
2023-09-30T12:30:44.614Z,61.56
2023-09-30T12:33:51.662Z,61.93
2023-09-30T12:36:53.978Z,61.62
2023-09-30T12:39:56.332Z,61.85
2023-09-30T12:42:59.171Z,61.29
2023-09-30T12:46:02.498Z,61.21
2023-09-30T12:49:05.801Z,61.05
2023-09-30T12:52:08.707Z,61.81
2023-09-30T12:55:11.562Z,61.93
2023-09-30T12:58:13.768Z,61.62
2023-09-30T13:01:22.403Z,61.59
2023-09-30T13:04:26.319Z,62.09
2023-09-30T13:07:28.783Z,61.24
2023-09-30T13:10:31.693Z,61.67
2023-09-30T13:13:36.915Z,61.47
2023-09-30T13:16:39.919Z,61.32
2023-09-30T13:19:42.992Z,61.75
2023-09-30T13:22:45.398Z,61.63
2023-09-30T13:25:47.650Z,61.58
2023-09-30T13:28:49.690Z,61.90
2023-09-30T13:31:52.187Z,61.44
2023-09-30T13:34:55.407Z,61.54
2023-09-30T13:37:57.918Z,61.36
2023-09-30T13:41:00.154Z,61.77
2023-09-30T13:44:02.590Z,61.46
2023-09-30T13:47:04.917Z,61.45
2023-09-30T13:50:10.593Z,61.69
2023-09-30T13:53:12.690Z,62.23
2023-09-30T13:56:14.921Z,62.03
2023-09-30T13:59:17.091Z,62.21
2023-09-30T14:02:19.469Z,62.32
2023-09-30T14:05:22.066Z,62.48
2023-09-30T14:08:25.684Z,62.67
2023-09-30T14:11:28.231Z,62.31
2023-09-30T14:14:30.495Z,62.66
2023-09-30T14:17:32.693Z,62.81
2023-09-30T14:20:35.304Z,62.43
2023-09-30T14:23:39.806Z,62.89
2023-09-30T14:26:42.448Z,62.99
2023-09-30T14:29:44.752Z,62.64
2023-09-30T14:32:46.896Z,63.00
2023-09-30T14:35:50.986Z,63.32
2023-09-30T14:39:08.149Z,62.83
2023-09-30T14:42:16.164Z,63.31
2023-09-30T14:45:18.209Z,63.31
2023-09-30T14:48:20.318Z,63.18
2023-09-30T14:51:25.597Z,62.99
2023-09-30T14:54:27.770Z,62.95
2023-09-30T14:57:30.528Z,63.29
2023-09-30T15:00:32.543Z,63.06
2023-09-30T15:03:37.435Z,63.40
2023-09-30T15:06:39.912Z,63.66
2023-09-30T15:09:43.778Z,63.96
2023-09-30T15:12:46.578Z,63.69
2023-09-30T15:15:48.732Z,64.04
2023-09-30T15:18:51.168Z,64.11
2023-09-30T15:21:53.216Z,64.14
2023-09-30T15:24:55.307Z,63.46
2023-09-30T15:27:59.102Z,62.24
2023-09-30T15:31:01.860Z,61.92
2023-09-30T15:34:04.243Z,61.86
2023-09-30T15:37:07.022Z,60.86
2023-09-30T15:40:09.819Z,60.22
2023-09-30T15:43:13.696Z,60.45
2023-09-30T15:46:16.169Z,59.92
2023-09-30T15:49:18.294Z,59.73
2023-09-30T15:52:20.435Z,60.26
2023-09-30T15:55:22.927Z,60.90
2023-09-30T15:58:25.616Z,62.35
2023-09-30T16:01:27.859Z,62.50
2023-09-30T16:04:30.189Z,62.87
2023-09-30T16:07:32.383Z,63.67
2023-09-30T16:10:35.574Z,63.81
2023-09-30T16:13:38.143Z,63.26
2023-09-30T16:16:40.299Z,63.11
2023-09-30T16:19:42.439Z,61.73
2023-09-30T16:22:44.657Z,60.08
2023-09-30T16:25:46.745Z,61.02
2023-09-30T16:28:48.886Z,60.23
2023-09-30T16:31:51.098Z,60.25
2023-09-30T16:34:53.606Z,61.69
2023-09-30T16:37:55.650Z,62.64
2023-09-30T16:40:59.036Z,63.65
2023-09-30T16:44:01.111Z,68.52
2023-09-30T16:47:03.183Z,75.57
2023-09-30T16:50:05.660Z,73.70
2023-09-30T16:53:07.752Z,73.29
2023-09-30T16:56:16.294Z,73.45
2023-09-30T16:59:18.526Z,73.33
2023-09-30T17:02:22.054Z,75.58
2023-09-30T17:05:24.578Z,76.61
2023-09-30T17:08:26.730Z,79.24
2023-09-30T17:11:28.828Z,79.36
2023-09-30T17:14:31.062Z,80.85
2023-09-30T17:17:37.992Z,79.60
2023-09-30T17:20:47.611Z,80.99
2023-09-30T17:23:49.835Z,81.06
2023-09-30T17:26:51.896Z,81.87
2023-09-30T17:29:54.091Z,82.62
2023-09-30T17:33:00.585Z,83.39
2023-09-30T17:36:07.819Z,83.85
2023-09-30T17:39:10.475Z,84.05
2023-09-30T17:42:16.247Z,83.82
2023-09-30T17:45:18.687Z,85.21
2023-09-30T17:48:23.417Z,85.19
2023-09-30T17:51:25.921Z,85.51
2023-09-30T17:54:28.059Z,86.30
2023-09-30T17:57:30.757Z,86.44
2023-09-30T18:00:35.330Z,84.89
2023-09-30T18:03:38.202Z,85.78
2023-09-30T18:06:40.770Z,86.55
2023-09-30T18:09:43.222Z,87.11
2023-09-30T18:12:45.374Z,86.16
2023-09-30T18:15:47.834Z,85.83
2023-09-30T18:18:50.530Z,86.70
2023-09-30T18:21:53.119Z,87.22
2023-09-30T18:24:55.361Z,88.08
2023-09-30T18:27:57.443Z,87.72
2023-09-30T18:31:02.780Z,87.95
2023-09-30T18:34:06.948Z,88.09
2023-09-30T18:37:09.207Z,88.15
2023-09-30T18:40:12.096Z,88.15
2023-09-30T18:43:15.241Z,87.22
2023-09-30T18:46:18.440Z,87.91
2023-09-30T18:49:20.639Z,87.54
2023-09-30T18:52:22.818Z,87.45
2023-09-30T18:55:25.264Z,87.38
2023-09-30T18:58:27.533Z,87.07
2023-09-30T19:01:29.770Z,88.52
2023-09-30T19:04:33.070Z,87.41
2023-09-30T19:07:35.766Z,86.83
2023-09-30T19:10:42.809Z,87.91
2023-09-30T19:13:51.057Z,86.74
2023-09-30T19:16:53.316Z,87.69
2023-09-30T19:19:55.648Z,87.23
2023-09-30T19:22:57.831Z,87.46
2023-09-30T19:26:00.171Z,85.75
2023-09-30T19:29:02.901Z,86.29
2023-09-30T19:32:05.174Z,86.56
2023-09-30T19:35:09.224Z,85.86
2023-09-30T19:38:11.985Z,86.31
2023-09-30T19:41:18.646Z,86.24
2023-09-30T19:44:20.672Z,86.65
2023-09-30T19:47:26.464Z,85.96
2023-09-30T19:50:28.703Z,86.00
2023-09-30T19:53:31.265Z,86.45
2023-09-30T19:56:33.406Z,85.95
2023-09-30T19:59:39.275Z,85.60
2023-09-30T20:02:43.334Z,87.18
2023-09-30T20:05:46.931Z,86.61
2023-09-30T20:08:51.109Z,85.33
2023-09-30T20:11:57.900Z,86.48
2023-09-30T20:15:00.280Z,86.58
2023-09-30T20:18:03.296Z,85.29
2023-09-30T20:21:05.326Z,85.95
2023-09-30T20:24:08.375Z,84.97
2023-09-30T20:27:12.902Z,84.74
2023-09-30T20:30:14.947Z,83.95
2023-09-30T20:33:17.365Z,84.31
2023-09-30T20:36:20.197Z,83.12
2023-09-30T20:39:22.636Z,82.81
2023-09-30T20:42:25.100Z,83.07
2023-09-30T20:45:27.368Z,82.36
2023-09-30T20:48:30.090Z,82.40
2023-09-30T20:51:32.176Z,81.47
2023-09-30T20:54:35.213Z,81.85
2023-09-30T20:57:37.638Z,81.58
2023-09-30T21:00:40.941Z,81.92
2023-09-30T21:03:43.914Z,82.45
2023-09-30T21:06:46.683Z,82.17
2023-09-30T21:09:50.647Z,81.39
2023-09-30T21:12:53.060Z,81.17
2023-09-30T21:15:55.398Z,81.22
2023-09-30T21:18:57.883Z,80.31
2023-09-30T21:22:00.280Z,79.09
2023-09-30T21:25:02.983Z,78.88
2023-09-30T21:28:05.376Z,78.05
2023-09-30T21:31:07.671Z,79.53
2023-09-30T21:34:09.981Z,78.25
2023-09-30T21:37:12.124Z,77.11
2023-09-30T21:40:14.862Z,77.22
2023-09-30T21:43:17.574Z,77.79
2023-09-30T21:46:20.208Z,77.13
2023-09-30T21:49:22.758Z,77.10
2023-09-30T21:52:25.684Z,76.54
2023-09-30T21:55:29.277Z,77.02
2023-09-30T21:58:32.957Z,77.97
2023-09-30T22:01:35.264Z,77.20
2023-09-30T22:04:37.509Z,76.60
2023-09-30T22:07:40.933Z,76.88
2023-09-30T22:10:43.098Z,75.89
2023-09-30T22:13:45.294Z,75.59
2023-09-30T22:16:47.506Z,74.75
2023-09-30T22:19:49.589Z,75.54
2023-09-30T22:22:52.051Z,74.92
2023-09-30T22:25:54.108Z,75.93
2023-09-30T22:28:56.296Z,76.25
2023-09-30T22:31:58.607Z,75.48
2023-09-30T22:35:01.451Z,75.92
2023-09-30T22:38:04.658Z,74.84
2023-09-30T22:41:08.688Z,74.01
2023-09-30T22:44:10.854Z,74.01
2023-09-30T22:47:13.457Z,73.58
2023-09-30T22:50:17.658Z,74.29
2023-09-30T22:53:19.832Z,74.13
2023-09-30T22:56:24.297Z,73.42
2023-09-30T22:59:26.465Z,73.13
2023-09-30T23:02:30.619Z,73.64
2023-09-30T23:05:33.757Z,73.58
2023-09-30T23:08:35.889Z,73.22
2023-09-30T23:11:39.074Z,72.55
2023-09-30T23:14:41.127Z,72.00
2023-09-30T23:17:45.415Z,72.50
2023-09-30T23:20:47.651Z,71.11
2023-09-30T23:23:50.098Z,72.05
2023-09-30T23:26:52.278Z,71.61
2023-09-30T23:29:54.274Z,70.82
2023-09-30T23:33:03.665Z,71.62
2023-09-30T23:36:07.274Z,71.64
2023-09-30T23:39:13.429Z,70.36
2023-09-30T23:42:15.468Z,70.32
2023-09-30T23:45:20.273Z,70.52
2023-09-30T23:48:23.690Z,70.32
2023-09-30T23:51:25.734Z,70.28
2023-09-30T23:54:27.873Z,70.05
2023-09-30T23:57:30.028Z,69.39
